Time;durP1;ratioP1;P1;durP2;ratioP2;P2;SDS_P1;SDS_P2;PMS_P1;PMS_P2;Temp;Humidity;BMP_temperature;BMP_pressure;BME280_temperature;BME280_humidity;BME280_pressure;Samples;Min_cycle;Max_cycle;Signal;HPM_P1;HPM_P2
2023/12/24 00:00:33;;;;;;;0.53;0.53;;;5.10;99.90;;;;;;2067637;28;20225;-82
2023/12/24 00:01:34;;;;;;;0.50;0.50;;;5.10;99.90;;;;;;2066991;28;20269;-82
2023/12/24 00:02:34;;;;;;;0.73;0.60;;;5.10;99.90;;;;;;2059461;28;20234;-82
2023/12/24 00:03:38;;;;;;;1.15;0.60;;;5.10;99.90;;;;;;2052252;28;20278;-84
2023/12/24 00:04:41;;;;;;;0.52;0.52;;;5.10;99.90;;;;;;2066329;28;20288;-83
2023/12/24 00:05:41;;;;;;;0.60;0.60;;;5.10;99.90;;;;;;2066805;28;20242;-83
2023/12/24 00:06:42;;;;;;;0.97;0.70;;;5.10;99.90;;;;;;2077062;28;20274;-82
2023/12/24 00:07:43;;;;;;;0.63;0.60;;;5.10;99.90;;;;;;2077498;28;20253;-82
2023/12/24 00:08:43;;;;;;;0.53;0.50;;;5.10;99.90;;;;;;2070124;28;20229;-81
2023/12/24 00:09:44;;;;;;;1.27;0.63;;;5.10;99.90;;;;;;2057705;28;20226;-81
2023/12/24 00:10:45;;;;;;;0.53;0.53;;;5.10;99.90;;;;;;2056831;28;20387;-82
2023/12/24 00:11:45;;;;;;;0.60;0.60;;;5.00;99.90;;;;;;2055168;28;20274;-84
2023/12/24 00:12:46;;;;;;;0.40;0.40;;;5.00;99.90;;;;;;2050940;28;20696;-85
2023/12/24 00:13:47;;;;;;;0.77;0.60;;;5.10;99.90;;;;;;2056234;28;20222;-82
2023/12/24 00:14:47;;;;;;;1.77;0.63;;;5.10;99.90;;;;;;2070442;28;20220;-82
2023/12/24 00:15:48;;;;;;;0.60;0.57;;;5.10;99.90;;;;;;2068710;28;20226;-82
2023/12/24 00:16:49;;;;;;;0.93;0.40;;;5.10;99.90;;;;;;2063980;28;20758;-82
2023/12/24 00:17:50;;;;;;;0.60;0.60;;;5.10;99.90;;;;;;2073928;28;20260;-83
2023/12/24 00:18:51;;;;;;;0.85;0.50;;;5.10;99.90;;;;;;2079135;28;20534;-82
2023/12/24 00:19:51;;;;;;;1.23;0.80;;;5.10;99.90;;;;;;2073875;28;20315;-82
2023/12/24 00:20:52;;;;;;;0.50;0.50;;;5.10;99.90;;;;;;2073607;28;20283;-82
2023/12/24 00:21:53;;;;;;;0.60;0.50;;;5.10;99.90;;;;;;2071255;28;20237;-82
2023/12/24 00:23:10;;;;;;;1.03;0.53;;;5.10;99.90;;;;;;2069239;28;20264;-81
2023/12/24 00:24:11;;;;;;;0.50;0.50;;;5.10;99.90;;;;;;2077342;28;20235;-82
2023/12/24 00:25:11;;;;;;;1.17;0.50;;;5.10;99.90;;;;;;2072137;28;20204;-83
2023/12/24 00:26:12;;;;;;;0.67;0.67;;;5.10;99.90;;;;;;2066524;28;20178;-82
2023/12/24 00:27:13;;;;;;;0.47;0.47;;;5.10;99.90;;;;;;2067978;28;20213;-83
2023/12/24 00:28:13;;;;;;;0.47;0.47;;;5.10;99.90;;;;;;2074498;28;20253;-82
2023/12/24 00:29:14;;;;;;;0.57;0.57;;;5.10;99.90;;;;;;2079411;28;20228;-82
2023/12/24 00:30:15;;;;;;;0.60;0.60;;;5.10;99.90;;;;;;2067114;28;20194;-82
2023/12/24 00:31:15;;;;;;;0.40;0.40;;;5.10;99.90;;;;;;2072051;28;20244;-82
2023/12/24 00:32:17;;;;;;;0.50;0.50;;;5.10;99.90;;;;;;2075095;28;20181;-83
2023/12/24 00:33:18;;;;;;;0.60;0.50;;;5.10;99.90;;;;;;2068815;28;20195;-81
2023/12/24 00:34:19;;;;;;;0.50;0.50;;;5.20;99.90;;;;;;2070026;28;20272;-83
2023/12/24 00:35:20;;;;;;;0.67;0.60;;;5.20;99.90;;;;;;2067331;28;20227;-82
2023/12/24 00:36:21;;;;;;;0.98;0.50;;;5.20;99.90;;;;;;2071516;28;20185;-83
2023/12/24 00:37:22;;;;;;;0.47;0.47;;;5.20;99.90;;;;;;2062240;28;20513;-80
2023/12/24 00:38:23;;;;;;;0.50;0.50;;;5.20;99.90;;;;;;2062952;28;20178;-82
2023/12/24 00:39:23;;;;;;;1.00;0.47;;;5.20;99.90;;;;;;2079535;28;20666;-81
2023/12/24 00:40:25;;;;;;;2.30;0.60;;;5.30;99.90;;;;;;2072025;28;20738;-82
2023/12/24 00:41:26;;;;;;;0.60;0.60;;;5.20;99.90;;;;;;2055730;28;20250;-81
2023/12/24 00:42:27;;;;;;;0.60;0.60;;;5.20;99.90;;;;;;2052658;28;20235;-81
2023/12/24 00:43:27;;;;;;;0.60;0.60;;;5.20;99.90;;;;;;2058560;28;20225;-80
2023/12/24 00:44:28;;;;;;;0.50;0.50;;;5.20;99.90;;;;;;2066802;28;20319;-81
2023/12/24 00:45:29;;;;;;;0.60;0.60;;;5.20;99.90;;;;;;2079123;28;20362;-84
2023/12/24 00:46:30;;;;;;;0.55;0.55;;;5.10;99.90;;;;;;2062745;28;20277;-80
2023/12/24 00:47:31;;;;;;;0.60;0.50;;;5.10;99.90;;;;;;2063077;28;20270;-82
2023/12/24 00:48:31;;;;;;;0.50;0.50;;;5.10;99.90;;;;;;2071299;28;20233;-82
2023/12/24 00:49:32;;;;;;;0.90;0.50;;;5.20;99.90;;;;;;2062313;28;20226;-81
2023/12/24 00:50:33;;;;;;;0.50;0.50;;;5.20;99.90;;;;;;2071932;28;20240;-80
2023/12/24 00:51:33;;;;;;;0.53;0.50;;;5.20;99.90;;;;;;2071325;28;20256;-81
2023/12/24 00:52:37;;;;;;;0.47;0.47;;;5.30;99.90;;;;;;2071451;28;20240;-81
2023/12/24 00:53:38;;;;;;;0.70;0.50;;;5.30;99.90;;;;;;2058041;28;20238;-81
2023/12/24 00:54:39;;;;;;;0.80;0.40;;;5.30;99.90;;;;;;2063691;28;20289;-81
2023/12/24 00:55:41;;;;;;;0.50;0.50;;;5.30;99.90;;;;;;2063653;28;20591;-81
2023/12/24 00:56:42;;;;;;;0.50;0.50;;;5.40;99.90;;;;;;2064009;28;20246;-82
2023/12/24 00:57:43;;;;;;;0.47;0.47;;;5.40;99.90;;;;;;2063460;28;20284;-81
2023/12/24 00:58:43;;;;;;;0.50;0.50;;;5.40;99.90;;;;;;2056723;28;20261;-80
2023/12/24 00:59:44;;;;;;;1.03;0.57;;;5.30;99.90;;;;;;2065039;28;20226;-81
2023/12/24 01:00:46;;;;;;;0.50;0.50;;;5.30;99.90;;;;;;2064938;28;20801;-81
2023/12/24 01:01:47;;;;;;;1.60;0.77;;;5.30;99.90;;;;;;2064522;28;20235;-81
2023/12/24 01:02:48;;;;;;;0.50;0.50;;;5.30;99.90;;;;;;2056776;28;20301;-80
2023/12/24 01:03:48;;;;;;;0.60;0.60;;;5.30;99.90;;;;;;2064827;28;20248;-81
2023/12/24 01:04:49;;;;;;;0.50;0.50;;;5.30;99.90;;;;;;2049225;28;20756;-81
2023/12/24 01:05:50;;;;;;;0.40;0.40;;;5.40;99.90;;;;;;2046693;28;20318;-81
2023/12/24 01:06:50;;;;;;;0.60;0.60;;;5.40;99.90;;;;;;2049349;28;20262;-81
2023/12/24 01:07:51;;;;;;;0.47;0.47;;;5.40;99.90;;;;;;2054635;28;20230;-81
2023/12/24 01:08:52;;;;;;;1.40;0.50;;;5.40;99.90;;;;;;2064548;28;20247;-82
2023/12/24 01:09:52;;;;;;;0.50;0.50;;;5.40;99.90;;;;;;2072765;28;20366;-81
2023/12/24 01:10:53;;;;;;;2.73;0.70;;;5.30;99.90;;;;;;2072015;28;20228;-81
2023/12/24 01:11:53;;;;;;;0.50;0.50;;;5.30;99.90;;;;;;2064583;28;20727;-83
2023/12/24 01:12:54;;;;;;;1.93;0.67;;;5.30;99.90;;;;;;2064591;28;20222;-80
2023/12/24 01:13:55;;;;;;;0.97;0.50;;;5.30;99.90;;;;;;2073095;28;20230;-81
2023/12/24 01:14:56;;;;;;;0.60;0.60;;;5.30;99.90;;;;;;2072631;28;20210;-80
2023/12/24 01:15:57;;;;;;;0.50;0.50;;;5.20;99.90;;;;;;2072608;28;20678;-80
2023/12/24 01:16:59;;;;;;;4.33;0.70;;;5.20;99.90;;;;;;2072006;28;20221;-79
2023/12/24 01:18:00;;;;;;;0.45;0.45;;;5.20;99.90;;;;;;2062247;28;20571;-81
2023/12/24 01:19:02;;;;;;;0.50;0.50;;;5.20;99.90;;;;;;2047732;28;20286;-80
2023/12/24 01:20:13;;;;;;;0.50;0.50;;;5.20;99.90;;;;;;2056634;28;20253;-80
2023/12/24 01:21:14;;;;;;;0.60;0.60;;;5.30;99.90;;;;;;2063383;28;20210;-81
2023/12/24 01:22:15;;;;;;;0.53;0.53;;;5.20;99.90;;;;;;2055082;28;20247;-80
2023/12/24 01:23:15;;;;;;;0.60;0.60;;;5.30;99.90;;;;;;2066248;28;20186;-81
2023/12/24 01:24:16;;;;;;;0.60;0.50;;;5.40;99.90;;;;;;2072810;28;20699;-81
2023/12/24 01:25:17;;;;;;;1.17;0.60;;;5.40;99.90;;;;;;2064500;28;20182;-82
2023/12/24 01:26:18;;;;;;;0.50;0.50;;;5.40;99.90;;;;;;2052579;28;20307;-81
2023/12/24 01:27:18;;;;;;;0.70;0.70;;;5.40;99.90;;;;;;2060451;28;20847;-81
2023/12/24 01:28:19;;;;;;;0.53;0.53;;;5.40;99.90;;;;;;2063142;28;20182;-82
2023/12/24 01:29:20;;;;;;;0.57;0.57;;;5.50;99.90;;;;;;2064317;28;20191;-81
2023/12/24 01:30:21;;;;;;;0.57;0.57;;;5.50;99.90;;;;;;2058611;28;20230;-81
2023/12/24 01:31:22;;;;;;;0.57;0.50;;;5.40;99.90;;;;;;2064255;28;20258;-81
2023/12/24 01:32:22;;;;;;;0.50;0.50;;;5.50;99.90;;;;;;2068167;28;20182;-81
2023/12/24 01:33:23;;;;;;;0.60;0.60;;;5.50;99.90;;;;;;2060310;28;20741;-81
2023/12/24 01:34:24;;;;;;;0.50;0.50;;;5.40;99.90;;;;;;2064616;28;20237;-81
2023/12/24 01:35:25;;;;;;;0.80;0.60;;;5.40;99.90;;;;;;2064425;28;20230;-81
2023/12/24 01:36:25;;;;;;;0.60;0.50;;;5.30;99.90;;;;;;2063420;28;20273;-81
2023/12/24 01:37:26;;;;;;;0.60;0.60;;;5.30;99.90;;;;;;2063105;28;20245;-80
2023/12/24 01:38:27;;;;;;;0.50;0.50;;;5.30;99.90;;;;;;2064132;28;20232;-80
2023/12/24 01:39:27;;;;;;;0.60;0.60;;;5.30;99.90;;;;;;2064467;28;20222;-81
2023/12/24 01:40:28;;;;;;;0.50;0.47;;;5.40;99.90;;;;;;2060732;28;20234;-80
2023/12/24 01:41:31;;;;;;;0.60;0.60;;;5.40;99.90;;;;;;2068394;28;20711;-81
2023/12/24 01:42:32;;;;;;;0.50;0.50;;;5.40;99.90;;;;;;2064881;28;20222;-81
2023/12/24 01:43:33;;;;;;;0.60;0.60;;;5.40;99.90;;;;;;2058923;28;20719;-79
2023/12/24 01:44:34;;;;;;;0.70;0.70;;;5.50;99.90;;;;;;2052635;28;20235;-80
2023/12/24 01:45:36;;;;;;;0.60;0.60;;;5.50;99.90;;;;;;2048938;28;20239;-81
2023/12/24 01:46:37;;;;;;;0.60;0.60;;;5.60;99.90;;;;;;2072258;28;20741;-80
2023/12/24 01:47:40;;;;;;;0.57;0.52;;;5.60;99.90;;;;;;2064086;28;20237;-81
2023/12/24 01:48:41;;;;;;;0.47;0.47;;;5.60;99.90;;;;;;2063803;28;20285;-81
2023/12/24 01:49:42;;;;;;;0.60;0.60;;;5.50;99.90;;;;;;2064094;28;20234;-80
2023/12/24 01:50:47;;;;;;;0.73;0.43;;;5.50;99.90;;;;;;2061790;28;20257;-81
2023/12/24 01:51:48;;;;;;;1.02;0.60;;;5.60;99.90;;;;;;2063335;28;20234;-80
2023/12/24 01:52:49;;;;;;;0.90;0.60;;;5.70;99.90;;;;;;2055943;28;20266;-81
2023/12/24 01:53:50;;;;;;;0.60;0.57;;;5.70;99.90;;;;;;2056098;28;20273;-80
2023/12/24 01:54:53;;;;;;;0.60;0.60;;;5.80;99.90;;;;;;2057112;28;20234;-81
2023/12/24 01:55:54;;;;;;;0.50;0.50;;;5.80;99.90;;;;;;2064483;28;20230;-80
2023/12/24 01:56:54;;;;;;;2.70;0.77;;;5.80;99.90;;;;;;2072108;28;20218;-81
2023/12/24 01:57:56;;;;;;;0.60;0.60;;;5.80;99.90;;;;;;2064386;28;20233;-81
2023/12/24 01:58:58;;;;;;;0.70;0.70;;;5.90;99.90;;;;;;2060603;28;20592;-80
2023/12/24 01:59:59;;;;;;;0.50;0.50;;;5.90;99.90;;;;;;2057568;28;20227;-81
2023/12/24 02:01:01;;;;;;;0.80;0.80;;;5.80;99.90;;;;;;2060499;28;20233;-80
2023/12/24 02:02:03;;;;;;;0.88;0.70;;;5.80;99.90;;;;;;2063397;28;20222;-80
2023/12/24 02:03:05;;;;;;;0.80;0.80;;;5.70;99.90;;;;;;2054537;28;20219;-80
2023/12/24 02:04:05;;;;;;;1.83;0.90;;;5.90;99.90;;;;;;2054887;28;20637;-80
2023/12/24 02:05:08;;;;;;;0.60;0.60;;;5.70;99.90;;;;;;2055564;28;20183;-81
2023/12/24 02:06:09;;;;;;;0.60;0.60;;;5.70;99.90;;;;;;2055478;28;20664;-80
2023/12/24 02:07:11;;;;;;;0.90;0.80;;;5.70;99.90;;;;;;2063659;28;20256;-79
2023/12/24 02:08:14;;;;;;;0.80;0.65;;;5.70;99.90;;;;;;2055873;28;20735;-80
2023/12/24 02:09:15;;;;;;;2.20;0.80;;;5.60;99.90;;;;;;2045907;28;20369;-81
2023/12/24 02:10:16;;;;;;;0.63;0.50;;;5.60;99.90;;;;;;2045196;28;20179;-80
2023/12/24 02:11:16;;;;;;;0.70;0.70;;;5.60;99.90;;;;;;2054803;28;20179;-81
2023/12/24 02:12:17;;;;;;;2.80;0.80;;;5.70;99.90;;;;;;2047414;28;20191;-80
2023/12/24 02:13:18;;;;;;;0.77;0.77;;;5.80;99.90;;;;;;2045494;28;20187;-80
2023/12/24 02:14:19;;;;;;;0.60;0.60;;;5.80;99.90;;;;;;2051894;28;20218;-80
2023/12/24 02:15:20;;;;;;;0.80;0.70;;;5.90;99.90;;;;;;2062088;28;20261;-80
2023/12/24 02:16:23;;;;;;;0.80;0.60;;;5.90;99.90;;;;;;2063522;28;20314;-81
2023/12/24 02:17:25;;;;;;;0.95;0.75;;;5.90;99.90;;;;;;2064780;28;20253;-81
2023/12/24 02:18:26;;;;;;;0.88;0.88;;;6.10;99.90;;;;;;2062766;28;20816;-80
2023/12/24 02:19:27;;;;;;;0.80;0.60;;;6.10;99.90;;;;;;2063191;28;20253;-80
2023/12/24 02:20:28;;;;;;;0.90;0.70;;;6.00;99.90;;;;;;2055624;28;20321;-80
2023/12/24 02:21:28;;;;;;;1.13;0.80;;;6.00;99.90;;;;;;2058466;28;20657;-81
2023/12/24 02:22:29;;;;;;;0.53;0.53;;;5.90;99.90;;;;;;2055277;28;20235;-81
2023/12/24 02:23:30;;;;;;;0.50;0.50;;;5.90;99.90;;;;;;2057657;28;20260;-80
2023/12/24 02:24:31;;;;;;;0.60;0.60;;;5.80;99.90;;;;;;2062982;28;20239;-80
2023/12/24 02:25:32;;;;;;;0.80;0.80;;;5.90;99.90;;;;;;2070075;28;20234;-81
2023/12/24 02:26:45;;;;;;;1.00;0.80;;;5.90;99.90;;;;;;2046741;28;20375;-81
2023/12/24 02:27:55;;;;;;;0.70;0.70;;;5.90;99.90;;;;;;2061820;28;20240;-81
2023/12/24 02:29:04;;;;;;;0.52;0.52;;;5.70;99.90;;;;;;2061991;28;20241;-81
2023/12/24 02:30:17;;;;;;;1.23;0.70;;;5.80;99.90;;;;;;2054570;28;20233;-81
2023/12/24 02:31:20;;;;;;;0.60;0.60;;;5.70;99.90;;;;;;2061720;28;20183;-81
2023/12/24 02:32:22;;;;;;;0.75;0.60;;;5.80;99.90;;;;;;2054013;28;20217;-81
2023/12/24 02:33:29;;;;;;;1.58;0.80;;;5.70;99.90;;;;;;2056175;28;21543;-81
2023/12/24 02:34:31;;;;;;;0.60;0.60;;;5.60;99.90;;;;;;2071166;28;20239;-81
2023/12/24 02:35:35;;;;;;;0.57;0.57;;;5.60;99.90;;;;;;2067431;28;20257;-81
2023/12/24 02:36:37;;;;;;;1.58;0.70;;;5.60;99.90;;;;;;2064078;28;20236;-81
2023/12/24 02:37:38;;;;;;;0.63;0.63;;;5.50;99.90;;;;;;2071445;28;20237;-81
2023/12/24 02:38:40;;;;;;;0.87;0.67;;;5.50;99.90;;;;;;2068791;28;20276;-81
2023/12/24 02:39:42;;;;;;;0.60;0.60;;;5.50;99.90;;;;;;2071519;28;20234;-81
2023/12/24 02:40:42;;;;;;;0.70;0.70;;;5.50;99.90;;;;;;2072661;28;20229;-80
2023/12/24 02:41:43;;;;;;;0.70;0.70;;;5.50;99.90;;;;;;2071847;28;20240;-80
2023/12/24 02:42:44;;;;;;;0.60;0.60;;;5.50;99.90;;;;;;2061254;28;20230;-81
2023/12/24 02:43:44;;;;;;;0.67;0.60;;;5.60;99.90;;;;;;2052108;28;20235;-80
2023/12/24 02:44:45;;;;;;;0.70;0.67;;;5.60;99.90;;;;;;2063199;28;20258;-81
2023/12/24 02:45:46;;;;;;;1.53;0.60;;;5.60;99.90;;;;;;2068660;28;20240;-82
2023/12/24 02:46:46;;;;;;;0.67;0.60;;;5.60;99.90;;;;;;2053989;28;20238;-81
2023/12/24 02:47:47;;;;;;;0.93;0.80;;;5.70;99.90;;;;;;2053540;28;20227;-80
2023/12/24 02:48:48;;;;;;;2.23;1.90;;;5.70;99.90;;;;;;2061455;28;20653;-81
2023/12/24 02:49:48;;;;;;;1.10;1.10;;;5.70;99.90;;;;;;2063077;28;20237;-80
2023/12/24 02:50:51;;;;;;;0.60;0.60;;;5.70;99.90;;;;;;2057607;28;20230;-81
2023/12/24 02:51:52;;;;;;;0.70;0.63;;;5.70;99.90;;;;;;2063710;28;20304;-81
2023/12/24 02:52:52;;;;;;;0.90;0.80;;;5.70;99.90;;;;;;2063984;28;20256;-81
2023/12/24 02:53:53;;;;;;;1.33;0.80;;;5.60;99.90;;;;;;2063657;28;20293;-81
2023/12/24 02:54:55;;;;;;;0.50;0.50;;;5.60;99.90;;;;;;2056300;28;20318;-81
2023/12/24 02:55:56;;;;;;;0.60;0.60;;;5.60;99.90;;;;;;2047749;28;20223;-81
2023/12/24 02:56:57;;;;;;;0.50;0.50;;;5.60;99.90;;;;;;2056161;28;20262;-81
2023/12/24 02:57:58;;;;;;;0.70;0.70;;;5.60;99.90;;;;;;2064079;28;20722;-81
2023/12/24 02:58:59;;;;;;;0.60;0.60;;;5.60;99.90;;;;;;2063398;28;20301;-81
2023/12/24 02:59:59;;;;;;;1.57;0.63;;;5.60;99.90;;;;;;2051976;28;20243;-81
2023/12/24 03:01:00;;;;;;;0.60;0.60;;;5.60;99.90;;;;;;2063561;28;20222;-81
2023/12/24 03:02:01;;;;;;;0.60;0.60;;;5.70;99.90;;;;;;2063753;28;20254;-81
2023/12/24 03:03:02;;;;;;;0.60;0.60;;;5.80;99.90;;;;;;2055150;28;20574;-81
2023/12/24 03:04:03;;;;;;;0.80;0.80;;;5.80;99.90;;;;;;2054620;28;20226;-81
2023/12/24 03:05:04;;;;;;;0.85;0.68;;;5.70;99.90;;;;;;2061944;28;20250;-79
2023/12/24 03:06:05;;;;;;;0.60;0.60;;;5.70;99.90;;;;;;2071412;28;20212;-82
2023/12/24 03:07:05;;;;;;;2.10;1.30;;;5.70;99.90;;;;;;2064668;28;20275;-80
2023/12/24 03:08:06;;;;;;;1.07;0.90;;;5.60;99.90;;;;;;2061282;28;20183;-81
2023/12/24 03:09:07;;;;;;;0.80;0.80;;;5.60;99.90;;;;;;2046499;28;20314;-81
2023/12/24 03:10:07;;;;;;;0.70;0.70;;;5.50;99.90;;;;;;2066000;28;20178;-80
2023/12/24 03:11:08;;;;;;;0.83;0.70;;;5.50;99.90;;;;;;2065039;28;20178;-81
2023/12/24 03:12:09;;;;;;;0.60;0.60;;;5.50;99.90;;;;;;2071560;28;20186;-80
2023/12/24 03:13:09;;;;;;;0.70;0.70;;;5.50;99.90;;;;;;2071821;28;20186;-80
2023/12/24 03:14:10;;;;;;;0.60;0.60;;;5.60;99.90;;;;;;2070416;28;20647;-81
2023/12/24 03:15:11;;;;;;;0.70;0.70;;;5.70;99.90;;;;;;2068849;28;20190;-81
2023/12/24 03:16:12;;;;;;;0.70;0.70;;;5.70;99.90;;;;;;2070642;28;20630;-81
2023/12/24 03:17:13;;;;;;;0.70;0.70;;;5.60;99.90;;;;;;2070978;28;20202;-81
2023/12/24 03:18:13;;;;;;;0.80;0.80;;;5.60;99.90;;;;;;2061413;28;20190;-81
2023/12/24 03:19:14;;;;;;;1.00;0.80;;;5.60;99.90;;;;;;2051246;28;20226;-81
2023/12/24 03:20:15;;;;;;;0.93;0.70;;;5.60;99.90;;;;;;2036130;28;20599;-80
2023/12/24 03:21:15;;;;;;;2.17;0.90;;;5.60;99.90;;;;;;2047687;28;20194;-81
2023/12/24 03:22:16;;;;;;;0.70;0.70;;;5.60;99.90;;;;;;2063451;28;20251;-81
2023/12/24 03:23:17;;;;;;;1.40;1.00;;;5.60;99.90;;;;;;2063285;28;20254;-80
2023/12/24 03:24:17;;;;;;;1.00;0.90;;;5.50;99.90;;;;;;2053348;28;20203;-81
2023/12/24 03:25:18;;;;;;;0.97;0.80;;;5.60;99.90;;;;;;2046033;28;20634;-81
2023/12/24 03:26:23;;;;;;;0.80;0.80;;;5.60;99.90;;;;;;2055612;28;20190;-80
2023/12/24 03:27:24;;;;;;;0.80;0.80;;;5.60;99.90;;;;;;2071067;28;20248;-81
2023/12/24 03:28:25;;;;;;;1.35;0.90;;;5.60;99.90;;;;;;2069883;28;20291;-80
2023/12/24 03:29:26;;;;;;;0.93;0.82;;;5.60;99.90;;;;;;2066134;28;20232;-81
2023/12/24 03:30:27;;;;;;;1.20;1.00;;;5.60;99.90;;;;;;2063107;28;20229;-81
2023/12/24 03:31:28;;;;;;;1.47;1.03;;;5.60;99.90;;;;;;2063620;28;20241;-80
2023/12/24 03:32:28;;;;;;;3.17;1.10;;;5.60;99.90;;;;;;2062427;28;20282;-81
2023/12/24 03:33:29;;;;;;;0.90;0.80;;;5.70;99.90;;;;;;2052303;28;20254;-81
2023/12/24 03:34:29;;;;;;;1.10;0.90;;;5.70;99.90;;;;;;2055514;28;20715;-81
2023/12/24 03:35:30;;;;;;;1.60;1.17;;;5.70;99.90;;;;;;2051517;28;20290;-80
2023/12/24 03:36:31;;;;;;;0.80;0.80;;;5.70;99.90;;;;;;2066556;28;20270;-81
2023/12/24 03:37:31;;;;;;;1.60;0.80;;;5.70;99.90;;;;;;2075230;28;20231;-81
2023/12/24 03:38:32;;;;;;;1.17;0.80;;;5.70;99.90;;;;;;2079201;28;20228;-81
2023/12/24 03:39:33;;;;;;;1.33;0.87;;;5.70;99.90;;;;;;2079340;28;20253;-81
2023/12/24 03:40:33;;;;;;;0.90;0.80;;;5.70;99.90;;;;;;2067481;28;20295;-81
2023/12/24 03:41:34;;;;;;;1.47;0.80;;;5.60;99.90;;;;;;2054748;28;20258;-81
2023/12/24 03:42:35;;;;;;;0.77;0.70;;;5.60;99.90;;;;;;2059340;28;20253;-82
2023/12/24 03:43:35;;;;;;;0.80;0.80;;;5.60;99.90;;;;;;2059616;28;20262;-80
2023/12/24 03:44:36;;;;;;;0.80;0.80;;;5.60;99.90;;;;;;2063381;28;20258;-83
2023/12/24 03:45:37;;;;;;;0.70;0.70;;;5.60;99.90;;;;;;2067554;28;20233;-81
2023/12/24 03:46:38;;;;;;;0.70;0.63;;;5.60;99.90;;;;;;2070757;28;20241;-79
2023/12/24 03:47:38;;;;;;;1.10;0.80;;;5.60;99.90;;;;;;2069608;28;20232;-81
2023/12/24 03:48:39;;;;;;;0.77;0.77;;;5.60;99.90;;;;;;2051269;28;20247;-81
2023/12/24 03:49:40;;;;;;;2.03;0.80;;;5.60;99.90;;;;;;2053948;28;20247;-81
2023/12/24 03:50:41;;;;;;;0.82;0.70;;;5.70;99.90;;;;;;2060643;28;20304;-80
2023/12/24 03:51:42;;;;;;;0.80;0.80;;;5.70;99.90;;;;;;2062571;28;20232;-81
2023/12/24 03:52:43;;;;;;;0.60;0.60;;;5.80;99.90;;;;;;2055451;28;20235;-80
2023/12/24 03:53:44;;;;;;;1.77;1.00;;;5.70;99.90;;;;;;2055170;28;20243;-81
2023/12/24 03:54:45;;;;;;;1.67;0.80;;;5.70;99.90;;;;;;2063288;28;20694;-81
2023/12/24 03:55:45;;;;;;;0.87;0.80;;;5.70;99.90;;;;;;2055392;28;20305;-81
2023/12/24 03:56:47;;;;;;;1.10;0.90;;;5.70;99.90;;;;;;2044555;28;20247;-81
2023/12/24 03:57:47;;;;;;;1.17;0.90;;;5.70;99.90;;;;;;2043703;28;20326;-81
2023/12/24 03:58:48;;;;;;;1.07;0.80;;;5.60;99.90;;;;;;2055179;28;20230;-80
2023/12/24 03:59:49;;;;;;;2.60;0.90;;;5.60;99.90;;;;;;2052158;28;20235;-81
2023/12/24 04:00:50;;;;;;;1.65;0.88;;;5.60;99.90;;;;;;2055327;28;20239;-81
2023/12/24 04:01:50;;;;;;;0.80;0.80;;;5.60;99.90;;;;;;2055057;28;20309;-81
2023/12/24 04:02:54;;;;;;;0.97;0.90;;;5.60;99.90;;;;;;2052588;28;20273;-81
2023/12/24 04:03:54;;;;;;;0.82;0.82;;;5.60;99.90;;;;;;2056477;28;20607;-81
2023/12/24 04:04:55;;;;;;;0.83;0.70;;;5.60;99.90;;;;;;2059442;28;20230;-82
2023/12/24 04:05:56;;;;;;;1.83;0.90;;;5.60;99.90;;;;;;2058883;28;20222;-79
2023/12/24 04:06:56;;;;;;;1.03;0.90;;;5.60;99.90;;;;;;2059548;28;20222;-81
2023/12/24 04:07:57;;;;;;;1.83;0.80;;;5.60;99.90;;;;;;2072645;28;20275;-80
2023/12/24 04:08:58;;;;;;;1.10;0.80;;;5.60;99.90;;;;;;2065255;28;20604;-80
2023/12/24 04:09:58;;;;;;;1.07;0.87;;;5.70;99.90;;;;;;2067209;28;20277;-81
2023/12/24 04:10:59;;;;;;;2.37;0.90;;;5.70;99.90;;;;;;2078821;28;20300;-80
2023/12/24 04:12:00;;;;;;;0.90;0.80;;;5.60;99.90;;;;;;2074117;28;20230;-80
2023/12/24 04:13:03;;;;;;;1.30;0.90;;;5.70;99.90;;;;;;2061756;28;20233;-81
2023/12/24 04:14:04;;;;;;;1.58;1.00;;;5.70;99.90;;;;;;2064169;28;20246;-81
2023/12/24 04:15:06;;;;;;;1.43;0.90;;;5.60;99.90;;;;;;2069111;28;20253;-80
2023/12/24 04:16:07;;;;;;;0.90;0.90;;;5.60;99.90;;;;;;2060824;28;20213;-81
2023/12/24 04:17:08;;;;;;;1.05;0.98;;;5.60;99.90;;;;;;2064820;28;20186;-80
2023/12/24 04:18:08;;;;;;;1.40;0.83;;;5.60;99.90;;;;;;2071446;28;20296;-80
2023/12/24 04:19:09;;;;;;;1.03;0.90;;;5.60;99.90;;;;;;2071977;28;20236;-80
2023/12/24 04:20:10;;;;;;;1.10;1.00;;;5.50;99.90;;;;;;2060842;28;20668;-80
2023/12/24 04:21:11;;;;;;;0.90;0.90;;;5.50;99.90;;;;;;2059798;28;20186;-80
2023/12/24 04:22:11;;;;;;;1.37;1.17;;;5.50;99.90;;;;;;2063678;28;20218;-83
2023/12/24 04:23:12;;;;;;;1.03;0.90;;;5.50;99.90;;;;;;2060081;28;20190;-80
2023/12/24 04:24:13;;;;;;;1.33;0.90;;;5.50;99.90;;;;;;2068616;28;20206;-80
2023/12/24 04:25:13;;;;;;;0.93;0.87;;;5.50;99.90;;;;;;2063934;28;20182;-81
2023/12/24 04:26:14;;;;;;;1.10;1.00;;;5.60;99.90;;;;;;2064438;28;20227;-81
2023/12/24 04:27:15;;;;;;;1.00;0.83;;;5.60;99.90;;;;;;2066523;28;20208;-81
2023/12/24 04:28:16;;;;;;;0.80;0.70;;;5.60;99.90;;;;;;2067230;28;20184;-81
2023/12/24 04:29:16;;;;;;;1.30;0.80;;;5.50;99.90;;;;;;2063362;28;20273;-81
2023/12/24 04:30:17;;;;;;;1.13;0.80;;;5.50;99.90;;;;;;2063902;28;20436;-81
2023/12/24 04:31:18;;;;;;;2.23;0.87;;;5.50;99.90;;;;;;2055211;28;20191;-81
2023/12/24 04:32:20;;;;;;;1.45;0.70;;;5.60;99.90;;;;;;2048679;28;20180;-79
2023/12/24 04:33:20;;;;;;;0.90;0.80;;;5.60;99.90;;;;;;2057517;28;20660;-81
2023/12/24 04:34:21;;;;;;;1.63;0.87;;;5.60;99.90;;;;;;2064993;28;20206;-80
2023/12/24 04:35:22;;;;;;;1.10;0.90;;;5.60;99.90;;;;;;2065328;28;20666;-80
2023/12/24 04:36:23;;;;;;;0.80;0.80;;;5.60;99.90;;;;;;2065497;28;20326;-81
2023/12/24 04:37:23;;;;;;;0.80;0.80;;;5.60;99.90;;;;;;2064609;28;20373;-81
2023/12/24 04:38:24;;;;;;;1.67;0.70;;;5.60;99.90;;;;;;2065081;28;20817;-80
2023/12/24 04:39:25;;;;;;;1.00;0.80;;;5.60;99.90;;;;;;2055655;28;20293;-80
2023/12/24 04:40:26;;;;;;;0.70;0.70;;;5.60;99.90;;;;;;2064601;28;20631;-80
2023/12/24 04:41:29;;;;;;;1.87;0.90;;;5.60;99.90;;;;;;2064676;28;20228;-81
2023/12/24 04:42:30;;;;;;;1.33;0.80;;;5.70;99.90;;;;;;2057797;28;20261;-80
2023/12/24 04:43:30;;;;;;;1.33;0.90;;;5.70;99.90;;;;;;2064949;28;20240;-81
2023/12/24 04:44:31;;;;;;;0.70;0.70;;;5.70;99.90;;;;;;2072888;28;20239;-81
2023/12/24 04:45:32;;;;;;;0.80;0.80;;;5.70;99.90;;;;;;2064523;28;20237;-81
2023/12/24 04:46:40;;;;;;;1.23;0.80;;;5.70;99.90;;;;;;2057410;28;20739;-81
2023/12/24 04:47:41;;;;;;;0.70;0.70;;;5.70;99.90;;;;;;2065980;28;20719;-81
2023/12/24 04:48:42;;;;;;;0.77;0.70;;;5.70;99.90;;;;;;2064704;28;20238;-80
2023/12/24 04:49:42;;;;;;;1.47;0.90;;;5.70;99.90;;;;;;2064770;28;20237;-81
2023/12/24 04:50:43;;;;;;;0.87;0.70;;;5.70;99.90;;;;;;2056604;28;20285;-81
2023/12/24 04:51:45;;;;;;;0.70;0.70;;;5.70;99.90;;;;;;2057650;28;20234;-81
2023/12/24 04:52:46;;;;;;;1.00;0.80;;;5.70;99.90;;;;;;2072685;28;20328;-81
2023/12/24 04:53:46;;;;;;;0.83;0.80;;;5.70;99.90;;;;;;2065098;28;20243;-80
2023/12/24 04:54:47;;;;;;;0.80;0.80;;;5.70;99.90;;;;;;2065618;28;20234;-81
2023/12/24 04:55:48;;;;;;;1.73;0.87;;;5.70;99.90;;;;;;2064832;28;20234;-81
2023/12/24 04:56:49;;;;;;;0.77;0.77;;;5.70;99.90;;;;;;2065297;28;20268;-81
2023/12/24 04:57:50;;;;;;;1.23;1.00;;;5.60;99.90;;;;;;2072786;28;20621;-82
2023/12/24 04:58:51;;;;;;;2.10;1.00;;;5.70;99.90;;;;;;2066722;28;20427;-81
2023/12/24 04:59:52;;;;;;;1.50;0.90;;;5.70;99.90;;;;;;2068655;28;20236;-81
2023/12/24 05:00:52;;;;;;;1.03;0.93;;;5.70;99.90;;;;;;2069334;28;20240;-81
2023/12/24 05:01:53;;;;;;;0.97;0.90;;;5.70;99.90;;;;;;2068895;28;20253;-79
2023/12/24 05:02:54;;;;;;;0.80;0.80;;;5.70;99.90;;;;;;2059154;28;20602;-82
2023/12/24 05:03:54;;;;;;;1.27;1.00;;;5.70;99.90;;;;;;2047883;28;20236;-80
2023/12/24 05:04:55;;;;;;;1.00;0.90;;;5.70;99.90;;;;;;2055456;28;20321;-81
2023/12/24 05:05:56;;;;;;;1.20;1.00;;;5.60;99.90;;;;;;2064220;28;20224;-81
2023/12/24 05:06:56;;;;;;;1.10;1.00;;;5.60;99.90;;;;;;2065234;28;20230;-81
2023/12/24 05:07:57;;;;;;;0.80;0.80;;;5.60;99.90;;;;;;2064645;28;20301;-81
2023/12/24 05:08:58;;;;;;;1.10;1.00;;;5.60;99.90;;;;;;2065248;28;20249;-81
2023/12/24 05:09:58;;;;;;;0.90;0.73;;;5.60;99.90;;;;;;2064348;28;20649;-81
2023/12/24 05:11:07;;;;;;;1.20;1.00;;;5.60;99.90;;;;;;2064566;28;20309;-80
2023/12/24 05:12:08;;;;;;;1.15;0.95;;;5.60;99.90;;;;;;2072251;28;20252;-81
2023/12/24 05:13:11;;;;;;;0.70;0.70;;;5.60;99.90;;;;;;2068717;28;20186;-81
2023/12/24 05:14:12;;;;;;;0.88;0.80;;;5.70;99.90;;;;;;2071803;28;20205;-80
2023/12/24 05:15:13;;;;;;;0.83;0.83;;;5.70;99.90;;;;;;2070978;28;20562;-81
2023/12/24 05:16:13;;;;;;;1.20;1.10;;;5.70;99.90;;;;;;2048200;28;20205;-81
2023/12/24 05:17:14;;;;;;;1.80;0.80;;;5.60;99.90;;;;;;2052511;28;20209;-80
2023/12/24 05:18:15;;;;;;;1.93;1.10;;;5.60;99.90;;;;;;2061294;28;20182;-81
2023/12/24 05:19:15;;;;;;;1.03;0.73;;;5.60;99.90;;;;;;2053277;28;20251;-79
2023/12/24 05:20:16;;;;;;;0.93;0.70;;;5.60;99.90;;;;;;2052192;28;20282;-81
2023/12/24 05:21:17;;;;;;;0.80;0.70;;;5.60;99.90;;;;;;2052565;28;20190;-81
2023/12/24 05:22:17;;;;;;;0.60;0.60;;;5.60;99.90;;;;;;2055875;28;20242;-80
2023/12/24 05:23:22;;;;;;;0.40;0.40;;;5.60;99.90;;;;;;2072786;28;20190;-81